Time;durP1;ratioP1;P1;durP2;ratioP2;P2;SDS_P1;SDS_P2;PMS_P1;PMS_P2;Temp;Humidity;BMP_temperature;BMP_pressure;BME280_temperature;BME280_humidity;BME280_pressure;Samples;Min_cycle;Max_cycle;Signal;HPM_P1;HPM_P2
2023/12/30 00:00:18;;;;;;;139.07;83.07;;;2.40;99.90;;;;;;5079003;28;20032;-73
2023/12/30 00:02:49;;;;;;;139.95;84.22;;;2.40;99.90;;;;;;5077602;28;20061;-70
2023/12/30 00:05:17;;;;;;;152.95;89.97;;;2.30;99.90;;;;;;5081632;28;20031;-77
2023/12/30 00:07:45;;;;;;;172.70;100.13;;;2.40;99.90;;;;;;5076448;28;20032;-73
2023/12/30 00:10:12;;;;;;;396.73;201.32;;;2.60;99.90;;;;;;5079535;28;20052;-74
2023/12/30 00:12:40;;;;;;;191.70;113.65;;;2.60;99.90;;;;;;5073595;28;20063;-73
2023/12/30 00:15:08;;;;;;;154.57;95.93;;;2.60;99.90;;;;;;5080486;28;20049;-72
2023/12/30 00:17:35;;;;;;;138.55;87.53;;;2.40;99.90;;;;;;5076518;28;20494;-73
2023/12/30 00:20:03;;;;;;;143.68;87.03;;;2.40;99.90;;;;;;5072841;28;20036;-76
2023/12/30 00:22:31;;;;;;;143.75;86.00;;;2.40;99.90;;;;;;5082365;28;20029;-72
2023/12/30 00:24:58;;;;;;;149.23;89.70;;;2.50;99.90;;;;;;5077912;28;20047;-73
2023/12/30 00:27:26;;;;;;;280.10;149.48;;;2.60;99.90;;;;;;5080767;28;20027;-72
2023/12/30 00:29:53;;;;;;;167.15;99.82;;;2.70;99.90;;;;;;5077733;28;20051;-73
2023/12/30 00:32:21;;;;;;;155.73;95.97;;;2.60;99.90;;;;;;5069425;28;20395;-72
2023/12/30 00:34:49;;;;;;;163.18;97.95;;;2.50;99.90;;;;;;5077226;28;20386;-74
2023/12/30 00:37:20;;;;;;;140.75;87.53;;;2.60;99.90;;;;;;5073896;28;20035;-75
2023/12/30 00:39:48;;;;;;;124.55;80.30;;;2.60;99.90;;;;;;5079032;28;20047;-72
2023/12/30 00:42:15;;;;;;;128.15;78.30;;;2.50;99.90;;;;;;5077507;28;20037;-74
2023/12/30 00:44:43;;;;;;;141.75;84.80;;;2.60;99.90;;;;;;5079008;28;20044;-79
2023/12/30 00:47:11;;;;;;;137.60;82.43;;;2.60;99.90;;;;;;5073482;28;20040;-76
2023/12/30 00:49:39;;;;;;;129.65;78.93;;;2.50;99.90;;;;;;5075599;28;20404;-70
2023/12/30 00:52:06;;;;;;;109.38;71.38;;;2.50;99.90;;;;;;5082699;28;20056;-70
2023/12/30 00:54:33;;;;;;;115.20;72.97;;;2.50;99.90;;;;;;5083905;28;20032;-69
2023/12/30 00:57:10;;;;;;;115.38;75.53;;;2.40;99.90;;;;;;5075734;28;20044;-71
2023/12/30 00:59:37;;;;;;;120.88;76.65;;;2.40;99.90;;;;;;5081139;28;20055;-78
2023/12/30 01:02:05;;;;;;;124.20;80.10;;;2.50;99.90;;;;;;5081360;28;20035;-71
2023/12/30 01:04:32;;;;;;;131.50;81.82;;;2.20;99.90;;;;;;5082147;28;20471;-76
2023/12/30 01:07:00;;;;;;;131.48;81.00;;;2.30;99.90;;;;;;5080154;28;20029;-77
2023/12/30 01:09:27;;;;;;;124.72;79.07;;;2.20;99.90;;;;;;5081456;28;20047;-77
2023/12/30 01:11:54;;;;;;;127.47;79.70;;;2.30;99.90;;;;;;5079529;28;20467;-77
2023/12/30 01:14:22;;;;;;;129.60;82.43;;;2.10;99.90;;;;;;5074196;28;20454;-72
2023/12/30 01:16:49;;;;;;;137.00;86.20;;;2.10;99.90;;;;;;5080677;28;20135;-72
2023/12/30 01:19:16;;;;;;;127.88;82.95;;;2.20;99.90;;;;;;5080115;28;20024;-73
2023/12/30 01:21:44;;;;;;;125.30;81.57;;;2.20;99.90;;;;;;5077687;28;20438;-71
2023/12/30 01:24:11;;;;;;;235.45;128.15;;;2.40;99.90;;;;;;5073894;28;20107;-71
2023/12/30 01:26:39;;;;;;;134.52;85.97;;;2.40;99.90;;;;;;5075779;28;20051;-70
2023/12/30 01:29:09;;;;;;;132.55;77.88;;;2.30;99.90;;;;;;5079005;28;20044;-72
2023/12/30 01:31:36;;;;;;;120.22;75.55;;;2.30;99.90;;;;;;5077268;28;20115;-70
2023/12/30 01:34:04;;;;;;;114.93;74.18;;;2.10;99.90;;;;;;5078011;28;20067;-71
2023/12/30 01:36:31;;;;;;;119.00;75.10;;;2.10;99.90;;;;;;5082131;28;20043;-72
2023/12/30 01:38:58;;;;;;;119.70;74.05;;;2.10;99.90;;;;;;5076086;28;20494;-69
2023/12/30 01:41:26;;;;;;;114.65;70.32;;;2.10;99.90;;;;;;5081344;28;20040;-71
2023/12/30 01:43:53;;;;;;;106.07;65.13;;;2.10;99.90;;;;;;5080003;28;20093;-71
2023/12/30 01:46:21;;;;;;;97.63;60.35;;;1.80;99.90;;;;;;5075008;28;20467;-71
2023/12/30 01:48:48;;;;;;;100.43;61.22;;;1.80;99.90;;;;;;5074971;28;20046;-71
2023/12/30 01:51:16;;;;;;;103.95;61.35;;;1.90;99.90;;;;;;5078473;28;20040;-71
2023/12/30 01:53:55;;;;;;;99.53;59.72;;;1.60;99.90;;;;;;5073087;28;20111;-72
2023/12/30 01:56:24;;;;;;;102.22;61.78;;;1.70;99.90;;;;;;5072491;28;20028;-72
2023/12/30 01:58:51;;;;;;;93.25;59.72;;;1.80;99.90;;;;;;5078140;28;20044;-71
2023/12/30 02:01:23;;;;;;;97.28;60.35;;;1.80;99.90;;;;;;5079793;28;20036;-71
2023/12/30 02:03:51;;;;;;;93.32;58.15;;;1.50;99.90;;;;;;5080697;28;20115;-72
2023/12/30 02:06:19;;;;;;;87.05;57.55;;;1.70;99.90;;;;;;5076653;28;20098;-71
2023/12/30 02:08:47;;;;;;;348.45;169.77;;;1.70;99.90;;;;;;5080230;28;20394;-70
2023/12/30 02:11:15;;;;;;;112.88;75.32;;;2.10;99.90;;;;;;5077468;28;20086;-72
2023/12/30 02:13:43;;;;;;;102.40;61.30;;;2.00;99.90;;;;;;5075905;28;20382;-73
2023/12/30 02:16:11;;;;;;;88.03;56.80;;;1.50;99.90;;;;;;5072149;28;20043;-73
2023/12/30 02:18:38;;;;;;;84.43;54.10;;;1.20;99.90;;;;;;5081326;28;20287;-73
2023/12/30 02:21:06;;;;;;;90.43;54.95;;;1.20;99.90;;;;;;5079006;28;20101;-73
2023/12/30 02:23:34;;;;;;;82.45;55.03;;;1.30;99.90;;;;;;5079036;28;20037;-72
2023/12/30 02:26:01;;;;;;;77.25;51.92;;;1.30;99.90;;;;;;5077818;28;20089;-73
2023/12/30 02:28:28;;;;;;;78.32;47.28;;;1.40;99.90;;;;;;5076149;28;20037;-72
2023/12/30 02:30:56;;;;;;;76.10;48.75;;;1.40;99.90;;;;;;5078097;28;20048;-70
2023/12/30 02:33:24;;;;;;;70.88;45.75;;;1.30;99.90;;;;;;5075821;28;20446;-72
2023/12/30 02:35:51;;;;;;;67.45;43.33;;;1.10;99.90;;;;;;5080204;28;20036;-72
2023/12/30 02:38:19;;;;;;;64.95;43.10;;;1.20;99.90;;;;;;5080546;28;20443;-71
2023/12/30 02:40:46;;;;;;;69.47;45.40;;;1.20;99.90;;;;;;5078512;28;20093;-72
2023/12/30 02:43:13;;;;;;;71.13;43.38;;;1.40;99.90;;;;;;5078494;28;20036;-71
2023/12/30 02:45:41;;;;;;;71.85;45.55;;;1.40;99.90;;;;;;5073408;28;20036;-74
2023/12/30 02:48:08;;;;;;;77.22;45.75;;;1.10;99.90;;;;;;5078527;28;20378;-71
2023/12/30 02:50:36;;;;;;;73.70;45.35;;;1.10;99.90;;;;;;5074840;28;20063;-70
2023/12/30 02:53:03;;;;;;;74.05;48.17;;;1.20;99.90;;;;;;5080944;28;20052;-73
2023/12/30 02:55:31;;;;;;;76.57;45.85;;;1.40;99.90;;;;;;5083839;28;20032;-71
2023/12/30 02:57:58;;;;;;;80.63;51.17;;;1.40;99.90;;;;;;5084736;28;20106;-72
2023/12/30 03:00:26;;;;;;;81.65;49.47;;;1.50;99.90;;;;;;5082093;28;20094;-72
2023/12/30 03:02:54;;;;;;;83.05;49.20;;;1.20;99.90;;;;;;5086111;28;20607;-72
2023/12/30 03:05:21;;;;;;;74.18;49.10;;;1.20;99.90;;;;;;5081218;28;20040;-72
2023/12/30 03:07:48;;;;;;;79.13;47.95;;;1.40;99.90;;;;;;5082498;28;20028;-71
2023/12/30 03:10:16;;;;;;;78.80;48.10;;;1.40;99.90;;;;;;5079652;28;20043;-73
2023/12/30 03:12:43;;;;;;;74.25;46.00;;;1.40;99.90;;;;;;5076301;28;20394;-73
2023/12/30 03:15:11;;;;;;;64.10;41.72;;;1.40;99.90;;;;;;5077290;28;20040;-72
2023/12/30 03:17:38;;;;;;;61.97;38.88;;;1.50;99.90;;;;;;5083606;28;20056;-73
2023/12/30 03:20:09;;;;;;;58.13;39.75;;;1.50;99.90;;;;;;5077616;28;20529;-71
2023/12/30 03:22:37;;;;;;;52.38;38.53;;;1.60;99.90;;;;;;5084576;28;20047;-73
2023/12/30 03:25:06;;;;;;;55.13;37.72;;;1.70;99.90;;;;;;5083601;28;20052;-74
2023/12/30 03:27:34;;;;;;;57.75;37.65;;;1.60;99.90;;;;;;5061948;28;20123;-72
2023/12/30 03:30:01;;;;;;;60.03;38.90;;;1.70;99.90;;;;;;5081120;28;20060;-73
2023/12/30 03:32:30;;;;;;;57.47;37.50;;;1.80;99.90;;;;;;5082261;28;20425;-71
2023/12/30 03:34:58;;;;;;;58.47;37.95;;;1.60;99.90;;;;;;5082949;28;20039;-72
2023/12/30 03:37:25;;;;;;;55.83;36.38;;;1.60;99.90;;;;;;5083229;28;20031;-73
2023/12/30 03:39:53;;;;;;;57.70;38.47;;;1.50;99.90;;;;;;5078137;28;20051;-73
2023/12/30 03:42:20;;;;;;;58.83;37.60;;;1.40;99.90;;;;;;5082597;28;20040;-73
2023/12/30 03:44:47;;;;;;;56.05;36.33;;;1.40;99.90;;;;;;5078240;28;20043;-73
2023/12/30 03:47:15;;;;;;;53.17;36.42;;;1.40;99.90;;;;;;5069549;28;20164;-74
2023/12/30 03:49:42;;;;;;;55.60;36.35;;;1.40;99.90;;;;;;5081887;28;20029;-73
2023/12/30 03:52:09;;;;;;;53.45;35.72;;;1.20;99.90;;;;;;5080652;28;20476;-73
2023/12/30 03:54:37;;;;;;;50.03;34.78;;;1.10;99.90;;;;;;5083070;28;20114;-73
2023/12/30 03:57:04;;;;;;;58.67;35.60;;;1.20;99.90;;;;;;5083689;28;20064;-73
2023/12/30 03:59:31;;;;;;;57.03;35.42;;;1.10;99.90;;;;;;5080466;28;20115;-72
2023/12/30 04:01:59;;;;;;;53.92;34.10;;;1.10;99.90;;;;;;5081278;28;20357;-73
2023/12/30 04:04:26;;;;;;;51.70;33.78;;;1.20;99.90;;;;;;5080567;28;20029;-73
2023/12/30 04:06:54;;;;;;;54.88;33.55;;;1.20;99.90;;;;;;5075114;28;20063;-73
2023/12/30 04:09:21;;;;;;;53.80;33.70;;;1.20;99.90;;;;;;5083054;28;20036;-73
2023/12/30 04:11:48;;;;;;;54.22;34.75;;;1.30;99.90;;;;;;5084047;28;20044;-73
2023/12/30 04:14:16;;;;;;;50.00;33.03;;;1.10;99.90;;;;;;5079904;28;20044;-73
2023/12/30 04:16:43;;;;;;;51.60;34.20;;;1.10;99.90;;;;;;5079397;28;20128;-73
2023/12/30 04:19:11;;;;;;;53.92;34.03;;;1.00;99.90;;;;;;5080531;28;20028;-73
2023/12/30 04:21:38;;;;;;;57.83;35.80;;;1.00;99.90;;;;;;5080242;28;20063;-74
2023/12/30 04:24:06;;;;;;;53.13;33.83;;;1.30;99.90;;;;;;5062319;28;20070;-73
2023/12/30 04:26:33;;;;;;;48.78;33.67;;;1.50;99.90;;;;;;5063754;28;20047;-72
2023/12/30 04:29:00;;;;;;;52.30;34.00;;;1.60;99.90;;;;;;5063487;28;20165;-71
2023/12/30 04:31:28;;;;;;;54.97;36.10;;;1.80;99.90;;;;;;5079660;28;20040;-73
2023/12/30 04:33:55;;;;;;;51.25;33.85;;;1.90;99.90;;;;;;5078623;28;20047;-73
2023/12/30 04:36:23;;;;;;;46.25;32.25;;;2.00;99.90;;;;;;5081968;28;20047;-74
2023/12/30 04:38:50;;;;;;;47.17;32.58;;;2.00;99.90;;;;;;5078630;28;20111;-72
2023/12/30 04:41:18;;;;;;;56.42;32.85;;;2.00;99.90;;;;;;5079869;28;20123;-74
2023/12/30 04:43:45;;;;;;;50.80;32.55;;;1.80;99.90;;;;;;5069182;28;20064;-73
2023/12/30 04:46:13;;;;;;;53.33;34.85;;;1.60;99.90;;;;;;5082780;28;20028;-74
2023/12/30 04:48:40;;;;;;;50.92;34.50;;;1.50;99.90;;;;;;5076520;28;20055;-73
2023/12/30 04:51:08;;;;;;;51.92;34.97;;;1.50;99.90;;;;;;5062319;28;20048;-73
2023/12/30 04:53:35;;;;;;;51.90;34.75;;;1.50;99.90;;;;;;5080103;28;20028;-73
2023/12/30 04:56:04;;;;;;;50.70;33.47;;;1.40;99.90;;;;;;5079712;28;20483;-74
2023/12/30 04:58:31;;;;;;;49.25;33.53;;;1.50;99.90;;;;;;5078335;28;20127;-74
2023/12/30 05:00:58;;;;;;;48.53;32.97;;;1.50;99.90;;;;;;5069109;28;20536;-72
2023/12/30 05:03:26;;;;;;;49.47;33.53;;;1.50;99.90;;;;;;5075498;28;20039;-73
2023/12/30 05:05:55;;;;;;;55.60;34.22;;;1.60;99.90;;;;;;5075990;28;20388;-72
2023/12/30 05:08:23;;;;;;;54.53;34.40;;;1.60;99.90;;;;;;5076546;28;20063;-73
2023/12/30 05:10:50;;;;;;;52.83;33.72;;;1.60;99.90;;;;;;5078526;28;20433;-71
2023/12/30 05:13:17;;;;;;;54.33;33.90;;;1.60;99.90;;;;;;5078469;28;20036;-70
2023/12/30 05:15:45;;;;;;;52.08;34.90;;;1.70;99.90;;;;;;5069204;28;20047;-71
2023/12/30 05:18:12;;;;;;;52.03;33.42;;;1.50;99.90;;;;;;5077456;28;20403;-71
2023/12/30 05:20:40;;;;;;;53.97;35.13;;;1.50;99.90;;;;;;5080432;28;20036;-72
2023/12/30 05:23:08;;;;;;;51.33;34.05;;;1.50;99.90;;;;;;5069787;28;20065;-72
2023/12/30 05:25:35;;;;;;;48.88;34.67;;;1.50;99.90;;;;;;5063722;28;20476;-72
2023/12/30 05:28:03;;;;;;;53.42;34.40;;;1.50;99.90;;;;;;5077594;28;20052;-72
2023/12/30 05:30:30;;;;;;;53.47;32.25;;;1.40;99.90;;;;;;5077471;28;20115;-72
2023/12/30 05:32:57;;;;;;;52.88;34.47;;;1.40;99.90;;;;;;5077906;28;20149;-73
2023/12/30 05:35:25;;;;;;;59.38;34.38;;;1.40;99.90;;;;;;5080365;28;20052;-72
2023/12/30 05:37:52;;;;;;;52.10;34.03;;;1.30;99.90;;;;;;5082922;28;20405;-73
2023/12/30 05:40:19;;;;;;;53.35;35.00;;;1.30;99.90;;;;;;5074397;28;20114;-72
2023/12/30 05:42:47;;;;;;;55.70;35.72;;;1.20;99.90;;;;;;5078630;28;20039;-73
2023/12/30 05:45:14;;;;;;;62.80;35.42;;;1.20;99.90;;;;;;5080135;28;20356;-73
2023/12/30 05:47:42;;;;;;;49.92;32.33;;;1.20;99.90;;;;;;5081566;28;20059;-72
2023/12/30 05:50:12;;;;;;;57.47;35.50;;;1.20;99.90;;;;;;5076771;28;20479;-73
2023/12/30 05:52:40;;;;;;;55.30;35.47;;;1.10;99.90;;;;;;5076404;28;20530;-73
2023/12/30 05:55:08;;;;;;;54.95;35.30;;;0.80;99.90;;;;;;5081128;28;20116;-73
2023/12/30 05:57:35;;;;;;;65.32;36.42;;;0.70;99.90;;;;;;5081208;28;20032;-72
2023/12/30 06:00:04;;;;;;;60.38;36.60;;;0.90;99.90;;;;;;5078390;28;20024;-70
2023/12/30 06:02:31;;;;;;;52.95;35.88;;;0.90;99.90;;;;;;5080004;28;20032;-72
2023/12/30 06:04:58;;;;;;;58.70;36.58;;;0.90;99.90;;;;;;5080216;28;20039;-72
2023/12/30 06:07:25;;;;;;;55.78;37.17;;;1.10;99.90;;;;;;5076163;28;20049;-72
2023/12/30 06:09:53;;;;;;;56.95;38.28;;;1.10;99.90;;;;;;5080886;28;20072;-73
2023/12/30 06:12:20;;;;;;;63.67;37.85;;;1.30;99.90;;;;;;5076163;28;20101;-73
2023/12/30 06:14:47;;;;;;;58.58;37.92;;;1.40;99.90;;;;;;5073451;28;20426;-72
2023/12/30 06:17:14;;;;;;;65.60;40.72;;;1.60;99.90;;;;;;5077000;28;20099;-73
2023/12/30 06:19:42;;;;;;;61.40;40.85;;;1.80;99.90;;;;;;5077244;28;20040;-72
2023/12/30 06:22:09;;;;;;;64.40;40.30;;;1.80;99.90;;;;;;5078519;28;20067;-73
2023/12/30 06:24:37;;;;;;;62.45;39.03;;;1.90;99.90;;;;;;5079884;28;20471;-73
2023/12/30 06:27:04;;;;;;;68.28;41.95;;;1.80;99.90;;;;;;5078751;28;20392;-73
2023/12/30 06:29:32;;;;;;;63.63;41.30;;;1.80;99.90;;;;;;5078618;28;20055;-73
2023/12/30 06:31:59;;;;;;;61.40;42.05;;;1.90;99.90;;;;;;5068171;28;20502;-73
2023/12/30 06:34:26;;;;;;;74.05;43.13;;;1.90;99.90;;;;;;5082412;28;20063;-71
2023/12/30 06:36:54;;;;;;;71.07;40.88;;;2.00;99.90;;;;;;5082151;28;20040;-70
2023/12/30 06:39:21;;;;;;;73.85;44.05;;;2.10;99.90;;;;;;5085227;28;20031;-72
2023/12/30 06:41:48;;;;;;;65.97;42.00;;;2.10;99.90;;;;;;5081738;28;20057;-70
2023/12/30 06:44:16;;;;;;;64.55;42.08;;;2.10;99.90;;;;;;5082663;28;20038;-72
2023/12/30 06:46:43;;;;;;;67.78;40.67;;;2.10;99.90;;;;;;5084750;28;20452;-73
2023/12/30 06:49:10;;;;;;;71.55;42.47;;;2.10;99.90;;;;;;5080135;28;20127;-74
2023/12/30 06:51:38;;;;;;;67.60;43.88;;;2.00;99.90;;;;;;5083819;28;20054;-73
2023/12/30 06:54:06;;;;;;;76.45;45.13;;;1.90;99.90;;;;;;5082688;28;20052;-72
2023/12/30 06:56:33;;;;;;;67.75;43.67;;;2.00;99.90;;;;;;5082294;28;20067;-73
2023/12/30 06:59:01;;;;;;;72.05;45.78;;;2.10;99.90;;;;;;5078889;28;20039;-72
2023/12/30 07:01:28;;;;;;;75.47;45.40;;;2.30;99.90;;;;;;5081956;28;20621;-71
2023/12/30 07:03:55;;;;;;;73.03;43.08;;;2.40;99.90;;;;;;5083501;28;20115;-72
2023/12/30 07:06:23;;;;;;;71.32;43.08;;;2.20;99.90;;;;;;5082501;28;20032;-71
2023/12/30 07:08:50;;;;;;;71.30;43.30;;;2.20;99.90;;;;;;5098535;28;20046;-72
2023/12/30 07:11:17;;;;;;;76.03;45.33;;;1.90;99.90;;;;;;5081256;28;20115;-72
2023/12/30 07:13:45;;;;;;;75.65;46.33;;;1.70;99.90;;;;;;5081637;28;20107;-72
2023/12/30 07:16:15;;;;;;;75.72;46.22;;;1.70;99.90;;;;;;5079955;28;20443;-73
2023/12/30 07:18:43;;;;;;;77.07;45.40;;;1.90;99.90;;;;;;5086704;28;20028;-74
2023/12/30 07:21:10;;;;;;;84.32;47.00;;;2.10;99.90;;;;;;5081787;28;20386;-72
2023/12/30 07:23:38;;;;;;;76.85;46.00;;;2.10;99.90;;;;;;5081856;28;20120;-71
2023/12/30 07:26:05;;;;;;;76.30;45.63;;;2.10;99.90;;;;;;5083510;28;20056;-72
2023/12/30 07:28:33;;;;;;;78.07;47.50;;;2.00;99.90;;;;;;5080127;28;20269;-71
2023/12/30 07:31:00;;;;;;;76.47;46.60;;;2.20;99.90;;;;;;5081377;28;20037;-73
2023/12/30 07:33:28;;;;;;;76.85;47.22;;;2.40;99.90;;;;;;5083567;28;20028;-71
2023/12/30 07:35:57;;;;;;;75.20;46.30;;;2.60;99.90;;;;;;5079262;28;20032;-72
2023/12/30 07:38:24;;;;;;;79.32;46.75;;;2.70;99.90;;;;;;5082231;28;20055;-71
2023/12/30 07:40:51;;;;;;;79.30;49.17;;;2.80;99.90;;;;;;5079350;28;20375;-72
2023/12/30 07:43:19;;;;;;;76.35;48.40;;;2.70;99.90;;;;;;5079252;28;20055;-73
2023/12/30 07:45:46;;;;;;;77.40;47.67;;;2.90;99.90;;;;;;5084514;28;20524;-71
2023/12/30 07:48:13;;;;;;;78.45;47.13;;;2.90;99.90;;;;;;5081013;28;20036;-71
2023/12/30 07:50:41;;;;;;;78.78;47.72;;;2.80;99.90;;;;;;5082886;28;20416;-75
2023/12/30 07:53:08;;;;;;;79.75;47.60;;;2.80;99.90;;;;;;5072766;28;20416;-71
2023/12/30 07:55:35;;;;;;;79.78;46.83;;;2.70;99.90;;;;;;5074375;28;20090;-72
2023/12/30 07:58:03;;;;;;;75.45;44.50;;;2.80;99.90;;;;;;5082555;28;20036;-72
2023/12/30 08:00:31;;;;;;;76.35;45.60;;;2.80;99.90;;;;;;5095432;28;20039;-72
2023/12/30 08:02:58;;;;;;;73.70;43.50;;;2.80;99.90;;;;;;5082559;28;20043;-72
2023/12/30 08:05:26;;;;;;;72.25;43.97;;;2.80;99.90;;;;;;5080609;28;20384;-70
2023/12/30 08:07:53;;;;;;;65.15;42.40;;;2.90;99.90;;;;;;5081720;28;20035;-72
2023/12/30 08:10:21;;;;;;;75.07;44.33;;;3.10;99.90;;;;;;5079437;28;20111;-72
2023/12/30 08:12:48;;;;;;;73.35;45.72;;;3.20;99.90;;;;;;5071588;28;20071;-72
2023/12/30 08:15:16;;;;;;;87.32;49.17;;;3.00;99.90;;;;;;5079545;28;20611;-71
2023/12/30 08:17:43;;;;;;;202.43;109.97;;;3.10;99.90;;;;;;5066215;28;20479;-71
2023/12/30 08:20:11;;;;;;;86.05;54.30;;;3.30;99.90;;;;;;5076600;28;20051;-72
2023/12/30 08:22:39;;;;;;;80.93;48.92;;;2.80;99.90;;;;;;5097497;28;20040;-72
2023/12/30 08:25:07;;;;;;;74.53;45.55;;;2.70;99.90;;;;;;5081603;28;20120;-70
2023/12/30 08:27:36;;;;;;;79.00;46.67;;;2.60;99.90;;;;;;5080421;28;20036;-74
2023/12/30 08:30:04;;;;;;;81.35;46.28;;;2.40;99.90;;;;;;5080578;28;20056;-72
2023/12/30 08:32:31;;;;;;;105.97;50.58;;;2.40;99.90;;;;;;5077681;28;20437;-73
2023/12/30 08:35:02;;;;;;;103.68;50.80;;;2.40;99.90;;;;;;5080709;28;20032;-72
2023/12/30 08:37:30;;;;;;;108.13;49.17;;;2.30;99.90;;;;;;5079238;28;20312;-68
2023/12/30 08:39:57;;;;;;;103.28;50.38;;;2.40;99.90;;;;;;5082165;28;20029;-73
2023/12/30 08:42:25;;;;;;;101.28;51.85;;;2.50;99.90;;;;;;5080021;28;20040;-72
2023/12/30 08:44:52;;;;;;;87.38;47.75;;;2.70;99.90;;;;;;5077671;28;20028;-72
2023/12/30 08:47:20;;;;;;;95.72;48.33;;;2.60;99.90;;;;;;5071510;28;20107;-71
2023/12/30 08:49:47;;;;;;;151.50;76.13;;;2.60;99.90;;;;;;5076567;28;20907;-70
2023/12/30 08:52:14;;;;;;;144.02;72.65;;;2.80;99.90;;;;;;5074686;28;20043;-73
2023/12/30 08:54:42;;;;;;;117.75;60.35;;;3.00;99.90;;;;;;5078073;28;20384;-72
2023/12/30 08:57:09;;;;;;;110.43;56.47;;;3.10;99.90;;;;;;5081531;28;20070;-70
2023/12/30 08:59:38;;;;;;;109.32;56.30;;;3.20;99.90;;;;;;5080594;28;20372;-71
2023/12/30 09:02:06;;;;;;;108.97;56.58;;;3.10;99.90;;;;;;5074038;28;20112;-72
2023/12/30 09:04:33;;;;;;;111.90;58.65;;;3.10;99.90;;;;;;5073356;28;20040;-70
2023/12/30 09:07:00;;;;;;;110.32;58.47;;;3.30;99.90;;;;;;5079547;28;20036;-72
2023/12/30 09:09:28;;;;;;;117.28;58.92;;;3.30;99.90;;;;;;5080153;28;20040;-70
2023/12/30 09:11:55;;;;;;;119.50;60.50;;;3.30;99.90;;;;;;5071990;28;20028;-71
2023/12/30 09:14:24;;;;;;;110.80;60.45;;;3.40;99.90;;;;;;5078920;28;20082;-73
2023/12/30 09:16:51;;;;;;;122.07;61.70;;;3.10;99.90;;;;;;5076019;28;20056;-71
2023/12/30 09:19:18;;;;;;;114.72;62.28;;;3.10;99.90;;;;;;5082173;28;20036;-71
2023/12/30 09:21:46;;;;;;;134.82;69.78;;;3.20;99.90;;;;;;5077240;28;20076;-71
2023/12/30 09:24:14;;;;;;;194.00;96.05;;;3.20;99.90;;;;;;5077157;28;20127;-70
2023/12/30 09:26:41;;;;;;;197.98;100.47;;;3.20;99.90;;;;;;5074193;28;20119;-71
2023/12/30 09:29:08;;;;;;;140.77;69.97;;;3.40;99.90;;;;;;5072363;28;20052;-71
2023/12/30 09:31:36;;;;;;;288.40;141.23;;;3.30;99.90;;;;;;5079294;28;20119;-72
2023/12/30 09:34:03;;;;;;;169.75;90.97;;;3.50;99.90;;;;;;5062426;28;20496;-71
2023/12/30 09:36:31;;;;;;;155.05;79.03;;;3.70;99.90;;;;;;5071841;28;20039;-71
2023/12/30 09:38:58;;;;;;;205.07;98.55;;;3.70;99.90;;;;;;5074061;28;20032;-70
2023/12/30 09:41:29;;;;;;;156.93;76.70;;;3.90;99.90;;;;;;5078358;28;20036;-71
2023/12/30 09:43:59;;;;;;;142.23;67.68;;;4.10;99.90;;;;;;5071901;28;20040;-72
2023/12/30 09:46:27;;;;;;;136.38;67.30;;;4.30;99.90;;;;;;5070858;28;20045;-71
2023/12/30 09:48:57;;;;;;;133.07;66.72;;;4.70;99.90;;;;;;5068605;28;20054;-72
2023/12/30 09:51:26;;;;;;;130.88;65.75;;;5.20;99.90;;;;;;5076831;28;20586;-72
2023/12/30 09:53:53;;;;;;;142.50;65.50;;;5.60;99.90;;;;;;5074790;28;20064;-73
2023/12/30 09:56:22;;;;;;;126.95;64.05;;;6.00;99.90;;;;;;5076588;28;20520;-71
2023/12/30 09:58:50;;;;;;;149.00;68.88;;;6.20;99.90;;;;;;5072064;28;20044;-72
2023/12/30 10:01:19;;;;;;;142.90;65.28;;;6.60;99.90;;;;;;5068832;28;20063;-72
2023/12/30 10:03:46;;;;;;;134.48;67.95;;;7.00;99.90;;;;;;5077920;28;20049;-73
2023/12/30 10:06:20;;;;;;;137.40;67.90;;;7.30;99.90;;;;;;5072100;28;20051;-74
2023/12/30 10:08:49;;;;;;;130.38;65.75;;;7.40;99.90;;;;;;5076878;28;20119;-72
2023/12/30 10:11:17;;;;;;;124.15;66.70;;;7.70;99.90;;;;;;5077510;28;20028;-74
2023/12/30 10:13:44;;;;;;;115.65;65.20;;;7.80;99.90;;;;;;5071715;28;20075;-71
2023/12/30 10:16:12;;;;;;;126.10;66.72;;;7.90;99.90;;;;;;5073179;28;20360;-72
2023/12/30 10:18:40;;;;;;;110.53;65.78;;;7.90;99.90;;;;;;5079562;28;20040;-73
2023/12/30 10:21:07;;;;;;;117.88;63.63;;;7.80;99.90;;;;;;5076525;28;20037;-73
2023/12/30 10:23:35;;;;;;;122.35;65.55;;;8.00;99.90;;;;;;5066639;28;20044;-72
2023/12/30 10:26:03;;;;;;;114.13;64.05;;;8.00;99.90;;;;;;5066824;28;20032;-72
2023/12/30 10:28:30;;;;;;;123.22;64.13;;;8.10;99.90;;;;;;5071831;28;20107;-70
2023/12/30 10:31:03;;;;;;;174.80;95.18;;;8.20;99.90;;;;;;5073982;28;20070;-71
2023/12/30 10:33:32;;;;;;;167.68;96.57;;;8.90;99.90;;;;;;5076624;28;20043;-72
2023/12/30 10:36:00;;;;;;;137.82;77.65;;;9.80;99.90;;;;;;5071495;28;20037;-72
2023/12/30 10:38:28;;;;;;;175.30;99.43;;;10.00;99.90;;;;;;5069978;28;20464;-72
2023/12/30 10:40:55;;;;;;;148.13;89.25;;;8.90;99.90;;;;;;5078091;28;20040;-70
2023/12/30 10:43:22;;;;;;;165.93;100.75;;;9.40;99.90;;;;;;5069617;28;20041;-71
2023/12/30 10:45:59;;;;;;;110.35;67.78;;;9.40;99.90;;;;;;5080442;28;20032;-73
2023/12/30 10:48:33;;;;;;;106.20;66.10;;;9.20;99.70;;;;;;5072715;28;20032;-70
2023/12/30 10:51:02;;;;;;;104.72;61.75;;;9.10;99.80;;;;;;5074308;28;20111;-71
2023/12/30 10:53:39;;;;;;;100.90;61.53;;;9.20;99.30;;;;;;5075269;28;20036;-73
2023/12/30 10:56:09;;;;;;;104.15;66.32;;;9.40;98.80;;;;;;5076662;28;20439;-71
2023/12/30 10:58:40;;;;;;;109.55;65.65;;;9.00;98.60;;;;;;5075991;28;20476;-71
2023/12/30 11:01:08;;;;;;;115.43;70.40;;;8.70;99.10;;;;;;5073781;28;20468;-71
2023/12/30 11:03:36;;;;;;;120.20;68.53;;;8.70;99.30;;;;;;5074977;28;20040;-74
2023/12/30 11:06:51;;;;;;;113.70;70.72;;;8.90;99.20;;;;;;5071041;28;20032;-69
2023/12/30 11:09:22;;;;;;;119.43;68.13;;;10.10;97.90;;;;;;5064848;28;20044;-70
2023/12/30 11:11:55;;;;;;;110.13;69.13;;;11.10;95.50;;;;;;5077851;28;20043;-70
2023/12/30 11:14:23;;;;;;;110.70;71.55;;;11.80;94.80;;;;;;5070552;28;20490;-72
2023/12/30 11:16:50;;;;;;;117.78;71.80;;;11.00;94.10;;;;;;5066681;28;20157;-71
2023/12/30 11:19:30;;;;;;;120.72;71.60;;;11.00;94.40;;;;;;5079482;28;20081;-72
2023/12/30 11:21:59;;;;;;;119.45;72.03;;;11.30;94.00;;;;;;5070474;28;20111;-70
2023/12/30 11:24:27;;;;;;;129.40;75.88;;;11.00;94.40;;;;;;5079974;28;20039;-70
2023/12/30 11:26:55;;;;;;;116.43;71.90;;;10.80;94.60;;;;;;5075760;28;20472;-70
2023/12/30 11:29:27;;;;;;;123.03;73.93;;;10.70;94.90;;;;;;5056732;28;20082;-70
2023/12/30 11:31:58;;;;;;;127.80;73.35;;;11.20;94.40;;;;;;5063838;28;20040;-71
2023/12/30 11:34:26;;;;;;;123.25;74.40;;;11.20;94.20;;;;;;5053181;28;20040;-71
2023/12/30 11:36:58;;;;;;;119.55;73.93;;;12.10;92.90;;;;;;5077668;28;20361;-71
2023/12/30 11:39:31;;;;;;;122.95;73.70;;;11.90;92.60;;;;;;5074620;28;20031;-71
2023/12/30 11:41:59;;;;;;;168.45;95.88;;;11.70;93.40;;;;;;5075603;28;20044;-71
2023/12/30 11:44:30;;;;;;;220.00;126.82;;;11.60;94.00;;;;;;5077817;28;20097;-70
2023/12/30 11:46:58;;;;;;;156.65;94.03;;;11.90;93.90;;;;;;5079556;28;20446;-72
2023/12/30 11:49:26;;;;;;;233.63;132.88;;;12.50;94.60;;;;;;5066840;28;20122;-70
2023/12/30 11:52:04;;;;;;;249.27;139.10;;;12.70;93.50;;;;;;5073563;28;20105;-70
2023/12/30 11:54:32;;;;;;;181.40;110.35;;;12.40;92.70;;;;;;5091219;28;20761;-69
2023/12/30 11:57:00;;;;;;;130.55;79.68;;;12.30;92.50;;;;;;5081649;28;20535;-72
2023/12/30 11:59:29;;;;;;;136.93;84.35;;;12.30;93.20;;;;;;5076590;28;20417;-72
2023/12/30 12:02:11;;;;;;;124.53;71.00;;;12.40;92.50;;;;;;5077058;28;20024;-72
2023/12/30 12:04:40;;;;;;;125.20;72.50;;;11.80;92.90;;;;;;5083267;28;20086;-74
2023/12/30 12:07:07;;;;;;;127.28;73.75;;;11.90;93.10;;;;;;5077575;28;20032;-73
2023/12/30 12:09:37;;;;;;;128.90;74.15;;;12.80;92.10;;;;;;5072363;28;20032;-72
2023/12/30 12:12:05;;;;;;;139.25;78.60;;;13.60;90.80;;;;;;5063908;28;20323;-76
2023/12/30 12:14:33;;;;;;;135.73;79.22;;;14.80;87.70;;;;;;5080637;28;20130;-74
2023/12/30 12:17:05;;;;;;;141.97;81.67;;;15.90;83.70;;;;;;5080417;28;20016;-72
2023/12/30 12:19:33;;;;;;;138.65;78.20;;;16.60;80.00;;;;;;5075767;28;20424;-73
2023/12/30 12:22:01;;;;;;;140.27;77.22;;;16.00;79.90;;;;;;5057184;28;20048;-75
2023/12/30 12:24:30;;;;;;;145.07;78.32;;;15.80;80.30;;;;;;5079391;28;20041;-74
2023/12/30 12:26:57;;;;;;;131.23;75.03;;;16.10;79.50;;;;;;5074038;28;20086;-74
2023/12/30 12:29:25;;;;;;;126.30;76.00;;;17.20;78.10;;;;;;5068297;28;20482;-74
2023/12/30 12:31:52;;;;;;;123.47;75.45;;;17.20;76.60;;;;;;5081300;28;20206;-73
2023/12/30 12:34:21;;;;;;;116.32;73.28;;;17.70;74.50;;;;;;5072382;28;20480;-73